Time;durP1;ratioP1;P1;durP2;ratioP2;P2;SDS_P1;SDS_P2;PMS_P1;PMS_P2;Temp;Humidity;BMP_temperature;BMP_pressure;BME280_temperature;BME280_humidity;BME280_pressure;Samples;Min_cycle;Max_cycle;Signal;HPM_P1;HPM_P2
2022/02/09 00:01:31;;;;;;;17.52;6.60;;;;;;;-0.12;63.25;93981.22;5100584;28;20148;-42
2022/02/09 00:07:01;;;;;;;11.97;5.93;;;;;;;0.04;64.10;93986.22;5099808;28;20413;-41
2022/02/09 00:09:11;;;;;;;8.50;4.80;;;;;;;0.15;63.43;93986.41;5101110;28;20454;-41
2022/02/09 00:11:50;;;;;;;19.85;5.18;;;;;;;0.12;63.29;93992.75;5107878;28;20068;-41
2022/02/09 00:14:29;;;;;;;;;;;;;;;-0.06;62.95;93985.53;5112092;28;20438;-41
2022/02/09 00:19:37;;;;;;;6.97;4.43;;;;;;;-0.31;65.08;93982.63;5098662;28;20058;-41
2022/02/09 00:22:21;;;;;;;10.70;4.03;;;;;;;-0.55;64.53;93985.38;5110417;28;20054;-41
2022/02/09 00:33:51;;;;;;;7.78;4.70;;;;;;;-0.40;65.49;94007.84;5091136;28;20040;-41
2022/02/09 00:36:08;;;;;;;9.88;4.13;;;;;;;-0.37;65.08;94004.19;5088954;28;20464;-40
2022/02/09 01:11:29;;;;;;;8.85;4.75;;;;;;;-1.29;67.85;94004.53;5090391;28;20035;-41
2022/02/09 01:56:55;;;;;;;9.18;5.03;;;;;;;-2.00;70.90;94023.25;5112659;28;20046;-42
2022/02/09 01:59:21;;;;;;;8.27;4.55;;;;;;;-1.88;70.76;94022.31;5113887;28;20081;-41
2022/02/09 02:01:47;;;;;;;11.40;5.72;;;;;;;-2.05;71.11;94021.91;5110740;28;20051;-41
2022/02/09 02:04:12;;;;;;;13.25;5.78;;;;;;;-2.06;70.90;94022.38;5093291;28;20397;-42
2022/02/09 02:06:42;;;;;;;11.05;4.95;;;;;;;-1.94;71.57;94022.19;5093615;28;20027;-42
2022/02/09 02:09:07;;;;;;;8.60;4.03;;;;;;;-1.91;70.52;94013.19;5093585;28;20078;-38
2022/02/09 02:11:41;;;;;;;8.25;4.82;;;;;;;-1.85;69.71;94005.19;5097529;28;20441;-41
2022/02/09 02:14:20;;;;;;;10.85;5.18;;;;;;;-1.91;70.64;94024.00;5102863;28;20085;-41
2022/02/09 02:16:52;;;;;;;7.78;3.95;;;;;;;-1.94;69.44;94024.16;5102240;28;20024;-40
2022/02/09 02:27:32;;;;;;;6.63;2.72;;;;;;;-2.55;70.77;94041.47;5093313;28;20081;-40
2022/02/09 02:30:18;;;;;;;8.93;3.30;;;;;;;-2.99;71.78;94024.03;5092703;28;20501;-40
2022/02/09 02:59:21;;;;;;;4.18;3.08;;;;;;;-2.15;71.81;94061.00;5092650;28;20054;-42
2022/02/09 03:17:54;;;;;;;11.68;6.45;;;;;;;-1.81;73.76;94065.31;5098273;28;20034;-42
2022/02/09 03:22:54;;;;;;;10.02;5.85;;;;;;;-1.57;73.31;94066.16;5112570;27;20024;-42
2022/02/09 03:30:57;;;;;;;13.50;6.38;;;;;;;-1.34;73.00;94064.75;5112244;28;20024;-42
2022/02/09 03:54:59;;;;;;;14.20;7.65;;;;;;;-0.94;72.86;94081.41;5112085;28;20484;-41
2022/02/09 03:57:29;;;;;;;19.27;7.38;;;;;;;-0.96;72.24;94075.72;5111940;28;20027;-41
2022/02/09 03:59:56;;;;;;;16.10;6.97;;;;;;;-0.88;72.77;94077.63;5111698;28;20220;-42
2022/02/09 04:02:22;;;;;;;14.35;7.28;;;;;;;-0.82;73.04;94081.19;5111733;28;20035;-42
2022/02/09 04:04:53;;;;;;;21.63;7.63;;;;;;;-0.71;72.92;94075.25;5111418;28;20032;-41
2022/02/09 04:07:19;;;;;;;21.90;8.50;;;;;;;-0.65;72.98;94070.69;5111735;28;20031;-41
2022/02/09 04:09:48;;;;;;;17.05;6.90;;;;;;;-0.63;72.67;94070.25;5111717;28;20105;-42
2022/02/09 04:12:29;;;;;;;13.65;7.05;;;;;;;-0.53;72.21;94075.16;5111557;28;20023;-41
2022/02/09 04:15:04;;;;;;;13.82;5.90;;;;;;;-0.47;71.46;94067.13;5096417;28;20539;-41
2022/02/09 04:17:44;;;;;;;8.98;5.55;;;;;;;-0.39;71.34;94068.28;5090585;28;20077;-41
2022/02/09 04:43:51;;;;;;;13.18;6.18;;;;;;;-0.83;73.24;94076.25;5111109;28;20023;-41
2022/02/09 04:51:48;;;;;;;18.67;7.35;;;;;;;-0.68;73.34;94068.94;5110789;28;20026;-40
2022/02/09 04:56:47;;;;;;;16.33;6.17;;;;;;;-0.73;73.07;94074.22;5110668;28;20479;-41
2022/02/09 05:23:42;;;;;;;18.42;7.40;;;;;;;-0.20;71.37;94105.69;5090269;28;20541;-40
2022/02/09 05:26:21;;;;;;;10.35;6.65;;;;;;;-0.14;71.54;94105.78;5102067;28;20027;-39
2022/02/09 05:28:46;;;;;;;14.18;7.65;;;;;;;-0.08;71.47;94109.34;5109954;28;20081;-40
2022/02/09 05:31:12;;;;;;;15.38;8.25;;;;;;;-0.08;71.37;94106.63;5108907;28;20435;-39
2022/02/09 05:33:37;;;;;;;19.52;7.68;;;;;;;-0.17;71.88;94110.16;5112129;28;20058;-39
2022/02/09 05:36:03;;;;;;;11.07;6.68;;;;;;;-0.11;71.64;94121.88;5108523;28;20162;-38
2022/02/09 05:38:30;;;;;;;16.27;7.90;;;;;;;0.03;71.38;94120.41;5091206;28;20040;-41
2022/02/09 05:40:55;;;;;;;23.25;12.52;;;;;;;0.01;71.32;94122.84;5105101;28;20062;-41
2022/02/09 05:43:24;;;;;;;12.18;7.13;;;;;;;-0.06;71.28;94115.06;5104934;28;20319;-38
2022/02/09 05:51:40;;;;;;;24.70;8.02;;;;;;;-0.17;72.69;94129.16;5098283;28;20047;-40
2022/02/09 05:57:10;;;;;;;17.90;9.75;;;;;;;0.00;71.38;94126.81;5104042;28;20027;-41
2022/02/09 05:59:31;;;;;;;29.48;13.68;;;;;;;0.05;71.75;94130.81;5091324;28;20528;-41
2022/02/09 06:01:56;;;;;;;26.90;14.85;;;;;;;-0.19;72.78;94126.16;5104321;28;20027;-41
2022/02/09 06:04:22;;;;;;;11.93;7.78;;;;;;;-0.13;72.54;94129.72;5111619;28;20530;-41
2022/02/09 06:06:47;;;;;;;44.90;20.23;;;;;;;-0.10;72.42;94133.50;5111387;28;20024;-39
2022/02/09 06:09:13;;;;;;;18.48;10.10;;;;;;;0.07;71.92;94136.53;5111680;28;20554;-41
2022/02/09 06:14:57;;;;;;;15.87;10.43;;;;;;;0.14;72.12;94131.50;5102561;28;20493;-42
2022/02/09 06:22:08;;;;;;;27.02;14.55;;;;;;;0.38;71.20;94145.03;5090962;28;20020;-41
2022/02/09 06:24:33;;;;;;;28.80;10.65;;;;;;;0.33;70.46;94126.66;5090979;28;20470;-41
2022/02/09 06:27:00;;;;;;;69.18;24.58;;;;;;;0.51;70.18;94135.41;5091253;28;20024;-40
2022/02/09 06:29:25;;;;;;;107.97;38.97;;;;;;;0.60;69.86;94146.19;5102337;28;20027;-41
2022/02/09 06:31:52;;;;;;;117.72;38.35;;;;;;;0.64;70.53;94141.31;5090293;28;20731;-41
2022/02/09 06:34:19;;;;;;;116.78;42.35;;;;;;;0.60;70.05;94142.72;5090368;28;20016;-41
2022/02/09 06:36:58;;;;;;;58.35;24.73;;;;;;;0.42;70.19;94146.34;5090233;28;20028;-41
2022/02/09 06:39:25;;;;;;;23.92;13.55;;;;;;;0.33;71.03;94146.41;5090189;28;20083;-42
2022/02/09 06:41:51;;;;;;;12.27;5.75;;;;;;;0.31;71.41;94153.53;5089795;28;20032;-41
2022/02/09 06:44:17;;;;;;;10.30;6.05;;;;;;;0.34;71.67;94147.19;5092218;28;20088;-41
2022/02/09 06:46:42;;;;;;;9.95;6.18;;;;;;;0.27;71.95;94147.53;5099217;28;20020;-41
2022/02/09 06:49:08;;;;;;;7.97;6.40;;;;;;;0.23;72.14;94149.69;5099639;28;20076;-41
2022/02/09 06:51:37;;;;;;;18.60;10.23;;;;;;;0.40;71.49;94154.22;5100870;28;20561;-41
2022/02/09 06:54:31;;;;;;;10.93;5.90;;;;;;;0.40;71.53;94161.59;5099094;28;20035;-39
2022/02/09 06:59:29;;;;;;;12.43;8.02;;;;;;;0.41;71.72;94157.69;5098876;28;20058;-42
2022/02/09 07:02:02;;;;;;;21.30;10.27;;;;;;;0.47;72.16;94153.09;5098916;28;20664;-41
2022/02/09 07:04:27;;;;;;;18.95;9.13;;;;;;;0.49;71.67;94153.38;5099370;28;20024;-41
2022/02/09 07:06:53;;;;;;;20.02;9.93;;;;;;;0.46;72.91;94151.59;5101056;28;20032;-41
2022/02/09 07:09:19;;;;;;;16.35;9.07;;;;;;;0.50;72.31;94150.19;5101592;28;20047;-42
2022/02/09 07:11:44;;;;;;;37.50;20.05;;;;;;;0.55;72.40;94146.06;5110280;28;20515;-42
2022/02/09 07:14:10;;;;;;;14.27;7.40;;;;;;;0.60;72.06;94154.34;5110449;28;20023;-41
2022/02/09 07:16:37;;;;;;;23.02;11.57;;;;;;;0.60;72.26;94151.63;5110487;27;20024;-41
2022/02/09 07:19:07;;;;;;;43.13;21.30;;;;;;;0.70;72.12;94149.56;5110437;28;20408;-41
2022/02/09 07:21:33;;;;;;;36.25;19.95;;;;;;;0.74;72.21;94150.88;5109680;28;20057;-41
2022/02/09 07:24:00;;;;;;;19.70;11.93;;;;;;;0.86;71.95;94146.38;5110068;28;20023;-42
2022/02/09 07:26:41;;;;;;;16.70;11.05;;;;;;;0.89;71.09;94150.84;5109610;28;20526;-42
2022/02/09 07:29:08;;;;;;;16.13;10.05;;;;;;;0.95;71.58;94135.41;5109935;28;20023;-41
2022/02/09 07:31:33;;;;;;;19.30;9.70;;;;;;;1.00;71.81;94153.75;5108667;28;20088;-41
2022/02/09 07:33:59;;;;;;;26.13;10.75;;;;;;;1.12;71.01;94157.41;5095480;28;20031;-39
2022/02/09 07:36:28;;;;;;;12.88;7.20;;;;;;;1.18;70.60;94167.16;5092133;28;20184;-40
2022/02/09 07:38:54;;;;;;;16.33;10.00;;;;;;;1.28;70.20;94160.38;5090510;28;20044;-40
2022/02/09 07:41:20;;;;;;;20.42;10.32;;;;;;;1.36;70.28;94156.09;5091268;28;20032;-41
2022/02/09 07:51:39;;;;;;;20.98;12.65;;;;;;;1.73;69.20;94158.31;5089855;28;20027;-41
2022/02/09 07:54:04;;;;;;;19.77;11.87;;;;;;;1.83;68.89;94159.69;5089277;28;20092;-41
2022/02/09 07:56:32;;;;;;;30.10;16.08;;;;;;;1.95;68.79;94161.34;5089979;28;20016;-41
2022/02/09 07:58:58;;;;;;;39.30;21.92;;;;;;;1.98;68.43;94163.09;5090311;28;20035;-41
2022/02/09 08:01:24;;;;;;;40.72;22.80;;;;;;;2.14;68.62;94170.75;5090029;28;20027;-41
2022/02/09 08:03:50;;;;;;;20.00;13.43;;;;;;;2.29;67.54;94160.53;5105064;28;20035;-41
2022/02/09 08:06:17;;;;;;;15.27;9.13;;;;;;;2.33;67.34;94163.78;5111475;28;20103;-41
2022/02/09 08:08:44;;;;;;;25.75;8.23;;;;;;;2.45;67.02;94170.13;5104630;28;20160;-41
2022/02/09 08:29:48;;;;;;;14.65;8.65;;;;;;;3.24;64.33;94173.13;5100089;28;20020;-41
2022/02/09 08:34:55;;;;;;;10.32;6.30;;;;;;;3.22;63.35;94175.56;5098516;28;20023;-41
2022/02/09 08:37:21;;;;;;;16.98;7.13;;;;;;;3.37;63.05;94178.94;5100361;28;20574;-41
2022/02/09 08:39:49;;;;;;;15.23;8.13;;;;;;;3.65;63.53;94175.19;5100392;28;20052;-41
2022/02/09 08:42:15;;;;;;;13.85;6.38;;;;;;;3.85;63.31;94171.56;5096788;28;20020;-41
2022/02/09 08:44:42;;;;;;;10.38;6.07;;;;;;;3.99;62.32;94176.13;5099350;28;20524;-41
2022/02/09 08:47:07;;;;;;;13.50;7.68;;;;;;;4.17;61.52;94164.78;5100145;28;20034;-42
2022/02/09 08:49:33;;;;;;;12.88;7.53;;;;;;;4.32;61.01;94170.81;5098413;28;20016;-41
2022/02/09 08:51:59;;;;;;;12.43;7.15;;;;;;;4.45;60.71;94173.84;5099947;28;20039;-41
2022/02/09 08:54:26;;;;;;;11.80;7.45;;;;;;;4.65;60.02;94167.47;5099805;28;20043;-41
2022/02/09 08:56:55;;;;;;;11.63;7.32;;;;;;;4.80;60.32;94173.47;5098260;28;20039;-42
2022/02/09 08:59:26;;;;;;;16.20;6.93;;;;;;;4.83;59.52;94169.00;5100289;28;20026;-42
2022/02/09 09:01:59;;;;;;;15.50;9.43;;;;;;;4.88;59.85;94166.28;5096968;28;20043;-41
2022/02/09 09:04:30;;;;;;;12.02;6.88;;;;;;;5.07;59.86;94163.81;5100986;28;20020;-41
2022/02/09 09:06:57;;;;;;;11.18;6.60;;;;;;;5.05;59.54;94144.41;5097586;28;20024;-42
2022/02/09 09:18:06;;;;;;;7.53;5.38;;;;;;;5.55;59.85;94169.81;5098959;28;20034;-41
2022/02/09 09:58:13;;;;;;;6.28;4.93;;;;;;;6.65;57.53;94155.09;5102746;28;20169;-41
2022/02/09 10:33:36;;;;;;;10.60;4.65;;;;;;;7.20;55.64;94142.31;5101215;28;20034;-42
2022/02/09 10:36:13;;;;;;;11.18;4.60;;;;;;;7.31;55.90;94142.22;5102303;28;20389;-42
2022/02/09 10:38:41;;;;;;;9.48;4.55;;;;;;;7.26;55.85;94135.53;5103091;28;20043;-41
2022/02/09 10:41:13;;;;;;;4.72;3.35;;;;;;;7.24;55.97;94132.53;5102397;28;20405;-41
2022/02/09 10:43:41;;;;;;;4.28;3.67;;;;;;;7.08;55.68;94136.13;5101053;28;20622;-42
2022/02/09 10:46:10;;;;;;;8.75;4.57;;;;;;;7.07;56.75;94137.41;5100804;28;20024;-41
2022/02/09 10:48:45;;;;;;;7.40;4.32;;;;;;;7.10;56.68;94133.66;5102422;28;20047;-41
2022/02/09 10:51:27;;;;;;;10.43;4.88;;;;;;;7.15;56.76;94123.84;5101359;28;20027;-42
2022/02/09 10:54:09;;;;;;;7.15;4.13;;;;;;;7.19;56.38;94127.81;5102486;28;20559;-42
2022/02/09 10:56:36;;;;;;;8.65;4.75;;;;;;;7.07;57.06;94139.41;5103766;28;20027;-42
2022/02/09 10:59:04;;;;;;;9.48;5.70;;;;;;;7.16;57.07;94130.84;5102525;28;20031;-41
2022/02/09 11:01:30;;;;;;;11.45;5.50;;;;;;;7.22;56.79;94128.81;5102401;28;20062;-41
2022/02/09 11:03:58;;;;;;;6.72;4.45;;;;;;;7.17;57.14;94133.09;5100036;28;20055;-41
2022/02/09 11:06:28;;;;;;;6.30;3.85;;;;;;;7.16;56.88;94117.88;5101806;28;20672;-41
2022/02/09 11:08:54;;;;;;;6.53;4.50;;;;;;;7.50;56.69;94127.34;5102088;28;20539;-41
2022/02/09 11:11:20;;;;;;;4.85;4.03;;;;;;;7.49;56.76;94130.59;5102349;28;20016;-42
2022/02/09 11:13:46;;;;;;;10.00;5.07;;;;;;;7.53;56.47;94131.06;5101173;28;20030;-41
2022/02/09 11:16:12;;;;;;;5.18;4.07;;;;;;;7.33;56.80;94128.72;5100289;28;20031;-41
2022/02/09 11:18:38;;;;;;;10.48;4.97;;;;;;;7.25;57.48;94128.56;5100515;28;20039;-41
2022/02/09 11:21:08;;;;;;;6.53;4.13;;;;;;;7.35;57.25;94131.72;5099423;28;20030;-41
2022/02/09 11:23:48;;;;;;;6.35;4.65;;;;;;;7.23;58.33;94131.06;5099715;28;20054;-41
2022/02/09 11:26:35;;;;;;;3.95;3.35;;;;;;;7.14;58.14;94127.88;5099855;28;20019;-42
2022/02/09 11:30:02;;;;;;;5.05;3.72;;;;;;;6.91;58.71;94129.28;5099455;28;20047;-42
2022/02/09 11:32:22;;;;;;;5.82;4.05;;;;;;;6.91;58.50;94132.03;5096818;28;20046;-40
2022/02/09 11:37:51;;;;;;;9.23;5.30;;;;;;;6.77;59.75;94140.09;5097265;28;20079;-40
2022/02/09 11:40:37;;;;;;;8.38;4.18;;;;;;;6.63;60.69;94138.41;5098611;28;20039;-41
2022/02/09 12:11:27;;;;;;;8.80;5.15;;;;;;;7.30;60.15;94116.00;5098113;28;20027;-39
2022/02/09 12:17:11;;;;;;;10.63;7.38;;;;;;;6.97;61.26;94130.75;5097539;28;20432;-41
2022/02/09 12:19:35;;;;;;;8.98;6.20;;;;;;;7.05;61.22;94128.94;5081522;28;20058;-41
2022/02/09 12:24:34;;;;;;;52.70;31.20;;;;;;;7.27;60.95;94136.28;5098755;28;20035;-41
2022/02/09 12:27:01;;;;;;;5.65;4.60;;;;;;;7.23;59.46;94125.56;5098939;28;20031;-39
2022/02/09 12:29:38;;;;;;;8.27;6.80;;;;;;;7.13;60.20;94132.63;5097448;28;20088;-41
2022/02/09 12:32:16;;;;;;;7.93;4.53;;;;;;;6.69;61.28;94125.38;5100248;28;20092;-39
2022/02/09 12:34:44;;;;;;;8.25;5.40;;;;;;;6.44;62.19;94112.81;5098873;28;20043;-41
2022/02/09 12:37:11;;;;;;;9.10;5.70;;;;;;;6.18;63.10;94125.38;5100183;28;20039;-38
2022/02/09 12:40:11;;;;;;;9.02;5.38;;;;;;;6.08;63.64;94130.41;5104388;28;20019;-40
2022/02/09 12:42:39;;;;;;;11.20;5.47;;;;;;;6.04;64.04;94138.13;5076266;28;20047;-36
2022/02/09 12:45:13;;;;;;;6.13;4.82;;;;;;;5.92;64.39;94137.41;5100401;28;20031;-41
2022/02/09 12:47:38;;;;;;;9.35;4.68;;;;;;;5.75;64.76;94147.63;5089137;28;20028;-41
2022/02/09 12:50:09;;;;;;;7.95;5.28;;;;;;;5.71;64.97;94144.41;5087886;28;20032;-41
2022/02/09 12:52:37;;;;;;;9.00;5.43;;;;;;;5.74;64.83;94143.38;5091991;28;20078;-41
2022/02/09 12:55:13;;;;;;;5.82;5.10;;;;;;;5.60;65.27;94147.16;5095698;28;20036;-41
2022/02/09 12:57:51;;;;;;;11.20;6.82;;;;;;;5.46;65.60;94148.16;5095543;28;20134;-41
2022/02/09 13:00:28;;;;;;;7.75;5.18;;;;;;;5.41;66.03;94148.91;5104434;28;20026;-41
2022/02/09 13:02:59;;;;;;;11.00;6.13;;;;;;;5.30;66.62;94144.19;5100515;28;20134;-41
2022/02/09 13:05:26;;;;;;;10.15;6.97;;;;;;;5.10;67.53;94133.47;5097745;28;20035;-41
2022/02/09 13:07:55;;;;;;;10.20;6.10;;;;;;;5.06;67.83;94126.75;5098404;28;20039;-41
2022/02/09 13:10:26;;;;;;;10.45;7.00;;;;;;;5.05;68.32;94133.44;5098759;28;20031;-40
2022/02/09 13:12:53;;;;;;;16.75;7.55;;;;;;;5.06;68.89;94134.97;5094470;28;20024;-41
2022/02/09 13:15:24;;;;;;;13.20;8.90;;;;;;;4.92;68.96;94136.66;5099135;28;20031;-41
2022/02/09 13:18:10;;;;;;;11.65;7.72;;;;;;;5.06;68.85;94143.91;5095738;28;20024;-40
2022/02/09 14:13:34;;;;;;;8.55;6.07;;;;;;;4.95;70.59;94179.47;5100382;28;20066;-41
2022/02/09 14:58:41;;;;;;;13.30;11.18;;;;;;;4.16;75.87;94196.06;5091798;28;20089;-41
2022/02/09 15:14:09;;;;;;;15.80;10.50;;;;;;;4.09;76.31;94206.72;5111965;28;20031;-41
2022/02/09 15:19:18;;;;;;;19.05;12.15;;;;;;;4.02;76.84;94207.19;5111717;28;20059;-41
2022/02/09 15:24:17;;;;;;;14.63;11.63;;;;;;;4.08;76.76;94205.97;5111856;28;20028;-39
2022/02/09 15:26:45;;;;;;;19.13;12.27;;;;;;;4.12;76.41;94206.50;5111094;27;20031;-42
2022/02/09 15:29:15;;;;;;;16.23;12.70;;;;;;;3.85;77.42;94207.81;5092232;28;20486;-42
2022/02/09 15:31:47;;;;;;;15.95;11.88;;;;;;;3.88;77.42;94211.56;5111441;27;20027;-41
2022/02/09 15:34:23;;;;;;;15.15;13.15;;;;;;;3.73;77.99;94205.50;5092493;28;20436;-41
2022/02/09 15:39:19;;;;;;;21.50;14.77;;;;;;;3.82;78.00;94227.16;5108318;28;20047;-41
2022/02/09 16:06:50;;;;;;;18.67;13.82;;;;;;;3.72;79.12;94250.44;5108517;28;20427;-42
2022/02/09 16:22:28;;;;;;;21.98;16.27;;;;;;;3.54;80.32;94262.47;5099561;28;20039;-41
2022/02/09 16:46:20;;;;;;;26.42;17.55;;;;;;;3.19;80.68;94266.56;5110968;28;20038;-41
2022/02/09 16:49:02;;;;;;;34.85;18.38;;;;;;;3.10;81.62;94280.41;5110815;28;20485;-41
2022/02/09 16:51:29;;;;;;;36.33;19.25;;;;;;;3.30;81.43;94285.78;5111008;28;20024;-41
2022/02/09 17:20:46;;;;;;;30.27;19.25;;;;;;;2.71;83.09;94296.28;5109648;28;20119;-41
2022/02/09 17:23:11;;;;;;;24.80;14.90;;;;;;;2.81;82.87;94303.88;5110752;28;20044;-40
2022/02/09 17:25:36;;;;;;;18.15;12.82;;;;;;;2.76;83.56;94306.53;5110171;28;20084;-41
2022/02/09 17:28:02;;;;;;;20.55;14.93;;;;;;;2.87;83.33;94315.59;5113063;28;20015;-41
2022/02/09 17:35:30;;;;;;;19.67;12.43;;;;;;;3.27;80.45;94314.78;5114846;28;20025;-42
2022/02/09 17:54:28;;;;;;;22.60;16.20;;;;;;;3.30;80.53;94337.66;5093821;28;20548;-40
2022/02/09 17:56:51;;;;;;;26.67;14.10;;;;;;;3.27;79.65;94352.25;5092844;28;20035;-39
2022/02/09 17:59:23;;;;;;;21.67;13.15;;;;;;;2.94;80.41;94338.97;5093945;28;20531;-40
2022/02/09 18:01:48;;;;;;;18.30;12.35;;;;;;;3.11;80.18;94337.19;5093464;28;20024;-40
2022/02/09 18:04:16;;;;;;;14.82;11.07;;;;;;;3.25;80.29;94365.63;5101002;28;20118;-41
2022/02/09 18:06:47;;;;;;;19.77;12.77;;;;;;;3.28;80.15;94361.94;5098580;28;20035;-41
2022/02/09 18:09:20;;;;;;;18.23;12.90;;;;;;;3.37;79.30;94367.25;5100794;27;20102;-41
2022/02/09 18:14:57;;;;;;;20.05;14.35;;;;;;;3.52;78.51;94367.91;5103828;28;20109;-41
2022/02/09 18:31:22;;;;;;;20.17;13.75;;;;;;;3.19;79.88;94371.03;5111746;28;20031;-40
2022/02/09 18:39:21;;;;;;;24.83;16.17;;;;;;;3.02;80.90;94375.53;5090351;28;20583;-41
2022/02/09 19:05:52;;;;;;;28.52;20.02;;;;;;;2.77;81.11;94398.03;5046377;28;20052;-39
2022/02/09 19:08:34;;;;;;;24.65;16.25;;;;;;;2.71;81.43;94408.84;5081401;28;20036;-41
2022/02/09 19:14:13;;;;;;;26.05;14.70;;;;;;;2.43;82.56;94401.47;5090645;28;20035;-41
2022/02/09 19:16:48;;;;;;;23.33;16.85;;;;;;;2.60;82.83;94408.66;5090325;28;20057;-41
2022/02/09 19:45:56;;;;;;;24.20;15.82;;;;;;;2.87;79.35;94427.41;5110134;28;20081;-41
2022/02/09 19:48:31;;;;;;;23.85;15.98;;;;;;;2.78;79.71;94427.53;5109772;28;20092;-42
2022/02/09 19:53:56;;;;;;;22.75;14.93;;;;;;;2.95;79.90;94423.06;5109536;28;20024;-41
2022/02/09 19:56:24;;;;;;;21.25;15.63;;;;;;;2.68;80.09;94425.41;5109279;28;20039;-41
2022/02/09 19:59:01;;;;;;;26.85;18.20;;;;;;;2.66;80.75;94427.84;5109199;28;20120;-41
2022/02/09 20:01:34;;;;;;;25.45;17.15;;;;;;;2.64;80.32;94428.31;5103139;28;20066;-42
2022/02/09 20:03:59;;;;;;;27.48;17.60;;;;;;;2.70;81.05;94425.69;5103909;28;20039;-44
2022/02/09 20:06:25;;;;;;;23.02;14.98;;;;;;;2.85;80.28;94434.56;5107503;28;20114;-44
2022/02/09 20:08:50;;;;;;;33.15;16.42;;;;;;;2.92;79.85;94434.91;5109430;28;20063;-42
2022/02/09 20:11:17;;;;;;;23.85;15.68;;;;;;;3.00;78.79;94430.56;5109859;28;20028;-42
2022/02/09 20:13:44;;;;;;;23.73;15.57;;;;;;;2.86;78.25;94436.06;5109015;28;20023;-42
2022/02/09 20:16:10;;;;;;;27.27;16.88;;;;;;;2.80;79.56;94440.69;5109100;28;20032;-42
2022/02/09 20:18:35;;;;;;;22.67;15.88;;;;;;;2.91;78.74;94447.06;5109080;28;20084;-41
2022/02/09 20:21:02;;;;;;;24.08;15.75;;;;;;;2.88;78.47;94444.53;5108889;28;20024;-41
2022/02/09 20:23:28;;;;;;;24.23;14.50;;;;;;;3.02;78.12;94441.75;5109120;28;20565;-41
2022/02/09 20:25:54;;;;;;;25.92;17.23;;;;;;;3.00;77.72;94441.47;5108781;28;20027;-41
2022/02/09 20:28:21;;;;;;;24.85;17.42;;;;;;;2.49;79.21;94433.03;5094813;28;20077;-41
2022/02/09 20:30:53;;;;;;;25.23;15.60;;;;;;;2.39;80.50;94444.53;5088635;28;20104;-41
2022/02/09 20:33:24;;;;;;;30.55;18.13;;;;;;;2.32;81.40;94453.81;5091132;28;20024;-41
2022/02/09 20:35:49;;;;;;;25.60;15.98;;;;;;;2.19;81.91;94456.84;5100425;28;20521;-41
2022/02/09 20:38:23;;;;;;;103.68;54.83;;;;;;;2.28;81.91;94453.28;5108858;28;20077;-39
2022/02/09 20:41:03;;;;;;;51.70;30.90;;;;;;;2.47;81.67;94457.28;5108471;28;20504;-40
2022/02/09 20:43:31;;;;;;;32.95;21.92;;;;;;;2.48;81.01;94455.31;5098409;28;20028;-41
2022/02/09 20:46:01;;;;;;;32.95;20.83;;;;;;;2.48;81.09;94466.97;5088678;28;20555;-41
2022/02/09 20:48:27;;;;;;;26.35;17.50;;;;;;;2.34;81.69;94456.84;5096311;28;20092;-40
2022/02/09 20:50:58;;;;;;;31.40;18.77;;;;;;;2.45;81.14;94457.00;5104465;28;20031;-41
2022/02/09 20:53:24;;;;;;;33.08;21.08;;;;;;;2.62;80.61;94460.00;5101612;28;20031;-41
2022/02/09 20:55:50;;;;;;;31.17;20.52;;;;;;;2.55;79.45;94447.53;5101121;28;20511;-40
2022/02/09 20:58:17;;;;;;;25.58;17.23;;;;;;;2.63;79.57;94462.25;5099555;28;20027;-41
2022/02/09 21:01:07;;;;;;;24.08;16.90;;;;;;;2.62;79.81;94463.47;5099149;28;20034;-41
2022/02/09 21:06:24;;;;;;;28.08;18.95;;;;;;;2.62;79.42;94449.13;5100028;28;20024;-41
2022/02/09 21:14:14;;;;;;;33.95;21.45;;;;;;;2.07;80.51;94459.84;5102496;28;20034;-41
2022/02/09 21:17:35;;;;;;;28.85;20.02;;;;;;;2.30;81.16;94456.28;5110720;28;20452;-41
2022/02/09 21:31:21;;;;;;;28.42;19.85;;;;;;;2.26;80.58;94470.09;5054787;28;20068;-41
2022/02/09 21:54:48;;;;;;;25.48;17.15;;;;;;;2.10;83.27;94495.06;5090752;28;20050;-41
2022/02/09 22:22:02;;;;;;;31.98;18.92;;;;;;;1.95;82.00;94509.91;5113866;28;20038;-42
2022/02/09 22:30:23;;;;;;;32.17;18.60;;;;;;;2.05;80.96;94493.03;5113579;28;20416;-41
2022/02/09 22:55:49;;;;;;;24.45;15.43;;;;;;;2.10;79.16;94486.16;5092122;28;20034;-43
2022/02/09 22:58:16;;;;;;;21.08;14.02;;;;;;;2.06;78.49;94477.41;5092663;28;20028;-42
2022/02/09 23:00:56;;;;;;;22.83;14.25;;;;;;;1.79;79.39;94464.81;5092860;28;20031;-42
2022/02/09 23:03:27;;;;;;;22.73;13.43;;;;;;;1.64;79.34;94468.72;5103605;28;20500;-42
2022/02/09 23:09:19;;;;;;;24.38;16.95;;;;;;;1.52;81.54;94473.94;5113036;28;20034;-42
2022/02/09 23:17:11;;;;;;;29.42;17.70;;;;;;;1.53;81.35;94480.16;5112531;28;20027;-42
